createdAt,value
2022-11-03T00:23:55.014Z,100786.88
2022-11-03T00:38:46.625Z,100761.55
2022-11-03T00:53:43.564Z,100742.00
2022-11-03T01:08:38.857Z,100743.05
2022-11-03T01:23:30.093Z,100739.00
2022-11-03T01:38:20.710Z,100728.34
2022-11-03T01:53:10.950Z,100711.83
2022-11-03T02:08:14.149Z,100691.55
2022-11-03T02:23:18.563Z,100660.80
2022-11-03T02:38:13.944Z,100635.45
2022-11-03T02:53:06.060Z,100607.52
2022-11-03T03:07:57.299Z,100597.66
2022-11-03T03:22:48.118Z,100566.64
2022-11-03T03:37:44.015Z,100547.15
2022-11-03T03:52:35.023Z,100536.70
2022-11-03T04:07:45.124Z,100506.75
2022-11-03T04:22:38.505Z,100501.34
2022-11-03T04:37:29.422Z,100481.70
2022-11-03T04:52:21.833Z,100480.80
2022-11-03T05:07:26.321Z,100454.40
2022-11-03T05:22:22.103Z,100429.53
2022-11-03T05:37:36.076Z,100412.12
2022-11-03T05:52:33.283Z,100388.71
2022-11-03T06:07:29.938Z,100383.94
2022-11-03T06:22:27.249Z,100388.20
2022-11-03T06:37:22.286Z,100366.45
2022-11-03T06:52:32.438Z,100344.45
2022-11-03T07:07:30.050Z,100338.95
2022-11-03T07:22:21.854Z,100320.12
2022-11-03T07:37:18.960Z,100298.31
2022-11-03T07:52:15.030Z,100274.48
2022-11-03T08:07:07.139Z,100245.22
2022-11-03T08:21:59.709Z,100237.64
2022-11-03T08:36:52.487Z,100232.55
2022-11-03T08:51:45.238Z,100218.50
2022-11-03T09:06:37.506Z,100201.88
2022-11-03T09:21:30.168Z,100181.84
2022-11-03T09:36:21.929Z,100155.11
2022-11-03T09:51:13.450Z,100132.66
2022-11-03T10:06:06.271Z,100130.79
2022-11-03T10:20:57.359Z,100102.94
2022-11-03T10:35:48.562Z,100069.30
2022-11-03T10:50:40.887Z,100035.42
2022-11-03T11:05:31.783Z,99997.07
2022-11-03T11:20:32.630Z,99969.70
2022-11-03T11:35:29.562Z,99952.30
2022-11-03T11:50:23.476Z,99925.64
2022-11-03T12:05:18.080Z,99889.45
2022-11-03T12:20:35.081Z,99850.17
2022-11-03T12:35:32.275Z,99829.42
2022-11-03T12:50:24.138Z,99789.41
2022-11-03T13:05:15.782Z,99744.36
2022-11-03T13:20:07.220Z,99699.87
2022-11-03T13:34:59.749Z,99645.45
2022-11-03T13:50:13.098Z,99625.55
2022-11-03T14:19:45.945Z,99542.69
2022-11-03T14:34:32.248Z,99523.25
2022-11-03T15:04:15.289Z,99468.67
2022-11-03T15:19:06.702Z,99453.38
2022-11-03T16:03:40.186Z,99374.91
2022-11-03T16:18:30.972Z,99425.23
2022-11-03T16:33:22.085Z,99431.17
2022-11-03T16:48:13.299Z,99387.01
2022-11-03T17:03:05.026Z,99343.94
2022-11-03T17:17:56.047Z,99358.22
2022-11-03T17:32:47.256Z,99321.91
2022-11-03T17:47:38.642Z,99302.43
2022-11-03T18:02:31.170Z,99284.08
2022-11-03T18:17:23.207Z,99290.36
2022-11-03T18:32:14.806Z,99312.44
2022-11-03T18:47:06.750Z,99285.50
2022-11-03T19:01:58.060Z,99291.13
2022-11-03T19:17:02.198Z,99248.06
2022-11-03T19:31:42.003Z,99219.51
2022-11-03T19:46:33.843Z,99191.28
2022-11-03T20:01:25.918Z,99180.00
2022-11-03T20:16:18.209Z,99170.60
2022-11-03T20:31:10.097Z,99138.30
2022-11-03T20:46:02.561Z,99143.89
2022-11-03T21:00:56.250Z,99148.23
2022-11-03T21:16:23.539Z,99209.92
2022-11-03T21:31:04.049Z,99232.76
2022-11-03T21:45:55.363Z,99289.74
2022-11-03T22:00:46.655Z,99312.66
2022-11-03T22:15:57.891Z,99331.23
2022-11-03T22:31:12.455Z,99384.90
2022-11-03T22:46:10.078Z,99408.36
2022-11-03T23:01:07.213Z,99399.83
2022-11-03T23:16:08.872Z,99422.96
2022-11-03T23:31:04.184Z,99424.86
2022-11-03T23:46:14.165Z,99422.05
